Atlantic Companion — SKPE — position and weather

sailwx.info

Track history (hours):
 
Tides and Currents Weather Stations Pressure Air Temp Water Temp Dewpoint Dewpoint Depression Visibility Wind Speed Wind Dir Waves Ship Positions

Atlantic Companion

Last reported at 2015-Jul-28 04:11 UTC. Time now 2015-Jul-29 06:51 UTC.
Position N 37°47' W 076°10'.

Length 292 m; beam 32.3 m; draft 11.6 m.

Type: Cargo ship. MMSI: 265142000.

Date/timePositionNaut miles runAvg speedWind from/ knotsBaromVisibWave heightAir tempDewpointWater temp
2015-Jul-28 04:11N 37°47' W 076°10'1016.3
2015-Jul-28 03:33N 37°57' W 076°12'1716.6
2015-Jul-28 02:32N 38°14' W 076°15'3716.5
2015-Jul-28 00:19N 38°50' W 076°24'1316.3
2015-Jul-27 23:33N 39°02' W 076°23'1111.4
2015-Jul-27 22:33N 39°12' W 076°30'3 2.5
2015-Jul-27 21:31N 39°14' W 076°32'0 0.0
2015-Jul-27 20:31N 39°14' W 076°32'0 0.0
2015-Jul-27 19:31N 39°14' W 076°32'0 0.0
2015-Jul-27 18:31N 39°14' W 076°32'0 0.0
2015-Jul-27 17:31N 39°14' W 076°32'0 0.0
2015-Jul-27 16:31N 39°14' W 076°32'0 0.0
2015-Jul-27 15:31N 39°14' W 076°32'0 0.0
2015-Jul-27 14:31N 39°14' W 076°32'0 0.0
2015-Jul-27 13:31N 39°14' W 076°32'0 0.0
2015-Jul-27 12:31N 39°14' W 076°32'0 0.0
2015-Jul-27 11:31N 39°14' W 076°32'0 0.0
2015-Jul-27 10:31N 39°14' W 076°32'0 0.0
2015-Jul-27 09:31N 39°14' W 076°32'0 0.0
2015-Jul-27 08:31N 39°14' W 076°32'0 0.0
2015-Jul-27 07:31N 39°14' W 076°32'0 0.0
2015-Jul-27 06:31N 39°14' W 076°32'0 0.0
2015-Jul-27 05:31N 39°14' W 076°32'0 0.0
2015-Jul-27 04:31N 39°14' W 076°32'0 0.0
2015-Jul-27 03:31N 39°14' W 076°32'0 0.0
2015-Jul-27 02:31N 39°14' W 076°32'0 0.0
2015-Jul-27 01:31N 39°14' W 076°32'0 0.0
2015-Jul-27 00:31N 39°14' W 076°32'0 0.0
2015-Jul-26 23:31N 39°14' W 076°32'0 0.0
2015-Jul-26 22:31N 39°14' W 076°32'0 0.0
2015-Jul-26 21:31N 39°14' W 076°32'0 0.0
2015-Jul-26 20:31N 39°14' W 076°32'2 2.3
2015-Jul-26 19:33N 39°12' W 076°31'1111.4
2015-Jul-26 18:33N 39°03' W 076°23'9116.7
2015-Jul-26 13:08N 37°34' W 076°02'915.6
2015-Jul-26 12:33N 37°25' W 076°05'1615.9
2015-Jul-26 11:33N 37°09' W 076°09'1615.8
2015-Jul-26 10:33N 36°56' W 075°57'1312.7
2015-Jul-26 09:33N 36°53' W 075°42'1615.6
2015-Jul-26 08:33N 37°05' W 075°30'8116.3
2015-Jul-26 03:34N 38°14' W 074°34'1817.5
2015-Jul-26 02:34N 38°30' W 074°27'2017.4
2015-Jul-26 01:26N 38°49' W 074°18'1517.2
2015-Jul-26 00:34N 39°03' W 074°11'2017.1
2015-Jul-25 23:24N 39°21' W 074°02'1417.1
2015-Jul-25 22:34N 39°35' W 073°56'1716.7
2015-Jul-25 21:34N 39°51' W 073°50'1716.8
2015-Jul-25 20:33N 40°08' W 073°49'1616.4
2015-Jul-25 19:34N 40°24' W 073°49'1312.5
2015-Jul-25 18:34N 40°32' W 074°01'8 8.1
2015-Jul-25 17:34N 40°39' W 074°08'3 3.2
2015-Jul-25 16:34N 40°42' W 074°08'0 0.0
2015-Jul-25 15:32N 40°42' W 074°08'0 0.0
2015-Jul-25 14:32N 40°42' W 074°08'0 0.0
2015-Jul-25 13:32N 40°42' W 074°08'0 0.0
2015-Jul-25 12:32N 40°42' W 074°08'0 0.0
2015-Jul-25 11:32N 40°42' W 074°08'2 1.9
2015-Jul-25 10:32N 40°40' W 074°09'0 0.0
2015-Jul-25 09:32N 40°40' W 074°09'0 0.0
2015-Jul-25 08:32N 40°40' W 074°09'0 0.0
2015-Jul-25 07:32N 40°40' W 074°09'0 0.0
2015-Jul-25 06:32N 40°40' W 074°09'0 0.0
2015-Jul-25 05:32N 40°40' W 074°09'0 0.0
2015-Jul-25 04:32N 40°40' W 074°09'0 0.0
2015-Jul-25 03:32N 40°40' W 074°09'0 0.0
2015-Jul-25 02:32N 40°40' W 074°09'0 0.0
2015-Jul-25 01:29N 40°40' W 074°09'0 0.0
2015-Jul-25 00:32N 40°40' W 074°09'0 0.0
2015-Jul-24 23:32N 40°40' W 074°09'0 0.0
2015-Jul-24 22:32N 40°40' W 074°09'0 0.0
2015-Jul-24 21:32N 40°40' W 074°09'0 0.0
2015-Jul-24 20:32N 40°40' W 074°09'0 0.0
2015-Jul-24 19:32N 40°40' W 074°09'0 0.0
2015-Jul-24 18:32N 40°40' W 074°09'0 0.0
2015-Jul-24 17:32N 40°40' W 074°09'0 0.0
2015-Jul-24 16:32N 40°40' W 074°09'0 0.0
2015-Jul-24 15:32N 40°40' W 074°09'0 0.0
2015-Jul-24 14:32N 40°40' W 074°09'0 0.0
2015-Jul-24 13:32N 40°40' W 074°09'1 1.4
2015-Jul-24 12:33N 40°39' W 074°08'7 7.1
2015-Jul-24 11:33N 40°33' W 074°02'1212.2
2015-Jul-24 10:33N 40°27' W 073°48'1413.8
2015-Jul-24 09:33N 40°28' W 073°30'1515.0
2015-Jul-24 08:33N 40°30' W 073°10'1515.3
2015-Jul-24 07:33N 40°30' W 072°50'1515.3
2015-Jul-24 06:33N 40°31' W 072°30'1515.4
2015-Jul-24 05:33N 40°31' W 072°10'1615.6
2015-Jul-24 04:33N 40°31' W 071°49'1615.6
2015-Jul-24 03:33N 40°31' W 071°29'1615.8
2015-Jul-24 02:33N 40°32' W 071°08'1615.7
2015-Jul-24 01:33N 40°32' W 070°47'1615.7
2015-Jul-24 00:33N 40°32' W 070°27'1615.6
2015-Jul-23 23:33N 40°33' W 070°06'1515.5
2015-Jul-23 22:33N 40°33' W 069°46'1616.0
2015-Jul-23 21:33N 40°34' W 069°25'1615.5
2015-Jul-23 20:33N 40°38' W 069°05'33217.2
2015-Jul-23 01:11N 44°20' W 063°30'1016.2
2015-Jul-23 00:33N 44°30' W 063°30'1110.6
2015-Jul-22 23:34N 44°40' W 063°36'1 1.5
2015-Jul-22 22:33N 44°40' W 063°38'0 0.0
2015-Jul-22 21:30N 44°40' W 063°38'0 0.0
2015-Jul-22 20:33N 44°40' W 063°38'0 0.0
2015-Jul-22 19:21N 44°40' W 063°38'0 0.0
2015-Jul-22 18:18N 44°40' W 063°38'0 0.0
2015-Jul-22 17:33N 44°40' W 063°38'0 0.0
2015-Jul-22 16:24N 44°40' W 063°38'0 0.0
2015-Jul-22 15:27N 44°40' W 063°38'0 0.0
2015-Jul-22 14:24N 44°40' W 063°38'0 0.0
2015-Jul-22 13:27N 44°40' W 063°38'0 0.0
2015-Jul-22 12:30N 44°40' W 063°38'0 0.0
2015-Jul-22 11:30N 44°40' W 063°38'0 0.1
2015-Jul-22 10:33N 44°40' W 063°38'5 5.4
2015-Jul-22 09:33N 44°36' W 063°32'10 9.9
2015-Jul-22 08:33N 44°28' W 063°26'1211.2
2015-Jul-22 07:30N 44°28' W 063°09'  
Track history (hours):
 
Tides and Currents Weather Stations Pressure Air Temp Water Temp Dewpoint Dewpoint Depression Visibility Wind Speed Wind Dir Waves Ship Positions

Atlantic Companion

Last reported at 2015-Jul-28 04:11 UTC. Time now 2015-Jul-29 06:51 UTC.
Position N 37°47' W 076°10'.

Length 292 m; beam 32.3 m; draft 11.6 m.

Type: Cargo ship. MMSI: 265142000.

Date/timePositionNaut miles runAvg speedWind from/ knotsBaromVisibWave heightAir tempDewpointWater temp
2015-Jul-28 04:11N 37°47' W 076°10'1016.3
2015-Jul-28 03:33N 37°57' W 076°12'1716.6
2015-Jul-28 02:32N 38°14' W 076°15'3716.5
2015-Jul-28 00:19N 38°50' W 076°24'1316.3
2015-Jul-27 23:33N 39°02' W 076°23'1111.4
2015-Jul-27 22:33N 39°12' W 076°30'3 2.5
2015-Jul-27 21:31N 39°14' W 076°32'0 0.0
2015-Jul-27 20:31N 39°14' W 076°32'0 0.0
2015-Jul-27 19:31N 39°14' W 076°32'0 0.0
2015-Jul-27 18:31N 39°14' W 076°32'0 0.0
2015-Jul-27 17:31N 39°14' W 076°32'0 0.0
2015-Jul-27 16:31N 39°14' W 076°32'0 0.0
2015-Jul-27 15:31N 39°14' W 076°32'0 0.0
2015-Jul-27 14:31N 39°14' W 076°32'0 0.0
2015-Jul-27 13:31N 39°14' W 076°32'0 0.0
2015-Jul-27 12:31N 39°14' W 076°32'0 0.0
2015-Jul-27 11:31N 39°14' W 076°32'0 0.0
2015-Jul-27 10:31N 39°14' W 076°32'0 0.0
2015-Jul-27 09:31N 39°14' W 076°32'0 0.0
2015-Jul-27 08:31N 39°14' W 076°32'0 0.0
2015-Jul-27 07:31N 39°14' W 076°32'0 0.0
2015-Jul-27 06:31N 39°14' W 076°32'0 0.0
2015-Jul-27 05:31N 39°14' W 076°32'0 0.0
2015-Jul-27 04:31N 39°14' W 076°32'0 0.0
2015-Jul-27 03:31N 39°14' W 076°32'0 0.0
2015-Jul-27 02:31N 39°14' W 076°32'0 0.0
2015-Jul-27 01:31N 39°14' W 076°32'0 0.0
2015-Jul-27 00:31N 39°14' W 076°32'0 0.0
2015-Jul-26 23:31N 39°14' W 076°32'0 0.0
2015-Jul-26 22:31N 39°14' W 076°32'0 0.0
2015-Jul-26 21:31N 39°14' W 076°32'0 0.0
2015-Jul-26 20:31N 39°14' W 076°32'2 2.3
2015-Jul-26 19:33N 39°12' W 076°31'1111.4
2015-Jul-26 18:33N 39°03' W 076°23'9116.7
2015-Jul-26 13:08N 37°34' W 076°02'915.6
2015-Jul-26 12:33N 37°25' W 076°05'1615.9
2015-Jul-26 11:33N 37°09' W 076°09'1615.8
2015-Jul-26 10:33N 36°56' W 075°57'1312.7
2015-Jul-26 09:33N 36°53' W 075°42'1615.6
2015-Jul-26 08:33N 37°05' W 075°30'8116.3
2015-Jul-26 03:34N 38°14' W 074°34'1817.5
2015-Jul-26 02:34N 38°30' W 074°27'2017.4
2015-Jul-26 01:26N 38°49' W 074°18'1517.2
2015-Jul-26 00:34N 39°03' W 074°11'2017.1
2015-Jul-25 23:24N 39°21' W 074°02'1417.1
2015-Jul-25 22:34N 39°35' W 073°56'1716.7
2015-Jul-25 21:34N 39°51' W 073°50'1716.8
2015-Jul-25 20:33N 40°08' W 073°49'1616.4
2015-Jul-25 19:34N 40°24' W 073°49'1312.5
2015-Jul-25 18:34N 40°32' W 074°01'8 8.1
2015-Jul-25 17:34N 40°39' W 074°08'3 3.2
2015-Jul-25 16:34N 40°42' W 074°08'0 0.0
2015-Jul-25 15:32N 40°42' W 074°08'0 0.0
2015-Jul-25 14:32N 40°42' W 074°08'0 0.0
2015-Jul-25 13:32N 40°42' W 074°08'0 0.0
2015-Jul-25 12:32N 40°42' W 074°08'0 0.0
2015-Jul-25 11:32N 40°42' W 074°08'2 1.9
2015-Jul-25 10:32N 40°40' W 074°09'0 0.0
2015-Jul-25 09:32N 40°40' W 074°09'0 0.0
2015-Jul-25 08:32N 40°40' W 074°09'0 0.0
2015-Jul-25 07:32N 40°40' W 074°09'0 0.0
2015-Jul-25 06:32N 40°40' W 074°09'0 0.0
2015-Jul-25 05:32N 40°40' W 074°09'0 0.0
2015-Jul-25 04:32N 40°40' W 074°09'0 0.0
2015-Jul-25 03:32N 40°40' W 074°09'0 0.0
2015-Jul-25 02:32N 40°40' W 074°09'0 0.0
2015-Jul-25 01:29N 40°40' W 074°09'0 0.0
2015-Jul-25 00:32N 40°40' W 074°09'0 0.0
2015-Jul-24 23:32N 40°40' W 074°09'0 0.0
2015-Jul-24 22:32N 40°40' W 074°09'0 0.0
2015-Jul-24 21:32N 40°40' W 074°09'0 0.0
2015-Jul-24 20:32N 40°40' W 074°09'0 0.0
2015-Jul-24 19:32N 40°40' W 074°09'0 0.0
2015-Jul-24 18:32N 40°40' W 074°09'0 0.0
2015-Jul-24 17:32N 40°40' W 074°09'0 0.0
2015-Jul-24 16:32N 40°40' W 074°09'0 0.0
2015-Jul-24 15:32N 40°40' W 074°09'0 0.0
2015-Jul-24 14:32N 40°40' W 074°09'0 0.0
2015-Jul-24 13:32N 40°40' W 074°09'1 1.4
2015-Jul-24 12:33N 40°39' W 074°08'7 7.1
2015-Jul-24 11:33N 40°33' W 074°02'1212.2
2015-Jul-24 10:33N 40°27' W 073°48'1413.8
2015-Jul-24 09:33N 40°28' W 073°30'1515.0
2015-Jul-24 08:33N 40°30' W 073°10'1515.3
2015-Jul-24 07:33N 40°30' W 072°50'1515.3
2015-Jul-24 06:33N 40°31' W 072°30'1515.4
2015-Jul-24 05:33N 40°31' W 072°10'1615.6
2015-Jul-24 04:33N 40°31' W 071°49'1615.6
2015-Jul-24 03:33N 40°31' W 071°29'1615.8
2015-Jul-24 02:33N 40°32' W 071°08'1615.7
2015-Jul-24 01:33N 40°32' W 070°47'1615.7
2015-Jul-24 00:33N 40°32' W 070°27'1615.6
2015-Jul-23 23:33N 40°33' W 070°06'1515.5
2015-Jul-23 22:33N 40°33' W 069°46'1616.0
2015-Jul-23 21:33N 40°34' W 069°25'1615.5
2015-Jul-23 20:33N 40°38' W 069°05'33217.2
2015-Jul-23 01:11N 44°20' W 063°30'1016.2
2015-Jul-23 00:33N 44°30' W 063°30'1110.6
2015-Jul-22 23:34N 44°40' W 063°36'1 1.5
2015-Jul-22 22:33N 44°40' W 063°38'0 0.0
2015-Jul-22 21:30N 44°40' W 063°38'0 0.0
2015-Jul-22 20:33N 44°40' W 063°38'0 0.0
2015-Jul-22 19:21N 44°40' W 063°38'0 0.0
2015-Jul-22 18:18N 44°40' W 063°38'0 0.0
2015-Jul-22 17:33N 44°40' W 063°38'0 0.0
2015-Jul-22 16:24N 44°40' W 063°38'0 0.0
2015-Jul-22 15:27N 44°40' W 063°38'0 0.0
2015-Jul-22 14:24N 44°40' W 063°38'0 0.0
2015-Jul-22 13:27N 44°40' W 063°38'0 0.0
2015-Jul-22 12:30N 44°40' W 063°38'0 0.0
2015-Jul-22 11:30N 44°40' W 063°38'0 0.1
2015-Jul-22 10:33N 44°40' W 063°38'5 5.4
2015-Jul-22 09:33N 44°36' W 063°32'10 9.9
2015-Jul-22 08:33N 44°28' W 063°26'1211.2
2015-Jul-22 07:30N 44°28' W 063°09'  

Dump ship's entire track history